To NAV CANADA Home Page Login to a new session Search on AWWS site Feedback and Comments Disclaimer Vers la page française équivalente Tips FAQ What's new on the site To the Forecasts and Observations / NOTAM section To "File a Flight Plan" website Publications and other links Update of the User's profile FIC Telephone Numbers My Weather Data Folder Route Weather Data Regional Weather Data Local Weather Data To the Forecasts and Observations / NOTAM section
Request Generated 06/30/2015 at 16:44:26 UTC . Weather information available at that time is displayed.

METAR/TAF

WINNIPEG/JAMES ARMSTRONG RICHARDSON INTL/MB    

METAR CYWG 301600Z 16004KT 120V200 15SM FEW150 BKN240 20/16 A2997 RMK
AC2CI5 SLP151 DENSITY ALT 1400FT=
METAR CYWG 301500Z 16006KT 15SM BKN240 20/15 A2998 RMK CI7 SLP153
DENSITY ALT 1400FT=
METAR CYWG 301400Z 16006KT 15SM FEW150 BKN240 18/15 A2998 RMK AC2CI5
SLP155 DENSITY ALT 1200FT=

TAF CYWG 301142Z 3012/0112 VRB03KT P6SM FEW020 FEW200 PROB30
3012/3014 1/2SM FG
BECMG 3014/3016 17008KT
FM301800 18008KT P6SM FEW030 SCT200
FM010600 18005KT P6SM SKC
RMK NXT FCST BY 301800Z=
Your time UTC time
Weather data provided by Environment Canada and NAV CANADA